createdAt,value
2022-10-20T00:00:22.416Z,17.06
2022-10-20T00:02:49.754Z,17.04
2022-10-20T00:05:16.976Z,17.03
2022-10-20T00:07:44.230Z,17.07
2022-10-20T00:10:11.524Z,16.91
2022-10-20T00:12:38.980Z,16.89
2022-10-20T00:15:06.519Z,16.95
2022-10-20T00:17:33.642Z,16.97
2022-10-20T00:20:00.786Z,16.83
2022-10-20T00:22:27.828Z,16.88
2022-10-20T00:24:54.928Z,16.85
2022-10-20T00:27:22.030Z,16.83
2022-10-20T00:29:49.834Z,16.81
2022-10-20T00:32:17.028Z,16.82
2022-10-20T00:34:44.092Z,16.77
2022-10-20T00:37:11.176Z,16.72
2022-10-20T00:39:38.236Z,16.68
2022-10-20T00:42:05.916Z,16.64
2022-10-20T00:44:53.666Z,16.73
2022-10-20T00:47:33.827Z,16.65
2022-10-20T00:50:12.915Z,16.65
2022-10-20T00:52:41.841Z,16.58
2022-10-20T00:55:10.351Z,16.64
2022-10-20T00:57:38.609Z,16.64
2022-10-20T01:00:09.022Z,16.63
2022-10-20T01:02:36.641Z,16.65
2022-10-20T01:05:04.732Z,16.55
2022-10-20T01:07:31.932Z,16.53
2022-10-20T01:09:59.392Z,16.55
2022-10-20T01:13:08.430Z,16.57
2022-10-20T01:15:45.438Z,16.36
2022-10-20T01:19:06.654Z,16.44
2022-10-20T01:21:33.727Z,16.44
2022-10-20T01:24:08.655Z,16.35
2022-10-20T01:26:47.731Z,16.32
2022-10-20T01:29:37.026Z,16.26
2022-10-20T01:33:05.513Z,16.23
2022-10-20T01:35:32.483Z,16.14
2022-10-20T01:38:04.854Z,16.10
2022-10-20T01:40:41.015Z,16.09
2022-10-20T01:43:11.836Z,15.95
2022-10-20T01:45:44.967Z,15.95
2022-10-20T01:48:13.356Z,15.93
2022-10-20T01:50:41.971Z,15.90
2022-10-20T01:53:09.794Z,15.86
2022-10-20T01:55:38.921Z,15.89
2022-10-20T01:58:27.669Z,15.84
2022-10-20T02:01:02.446Z,15.81
2022-10-20T02:03:48.156Z,15.76
2022-10-20T02:06:24.158Z,15.78
2022-10-20T02:09:01.693Z,15.58
2022-10-20T02:11:28.711Z,15.72
2022-10-20T02:13:57.797Z,15.68
2022-10-20T02:16:34.307Z,15.75
2022-10-20T02:19:02.210Z,15.57
2022-10-20T02:21:29.704Z,15.65
2022-10-20T02:24:03.767Z,15.68
2022-10-20T02:26:33.106Z,15.41
2022-10-20T02:29:05.498Z,15.54
2022-10-20T02:31:32.918Z,15.61
2022-10-20T02:34:00.093Z,15.51
2022-10-20T02:36:29.942Z,15.59
2022-10-20T02:38:57.060Z,15.57
2022-10-20T02:41:24.211Z,15.46
2022-10-20T02:43:54.208Z,15.53
2022-10-20T02:46:21.443Z,15.53
2022-10-20T02:48:48.496Z,15.53
2022-10-20T02:51:17.507Z,15.56
2022-10-20T02:53:45.514Z,15.61
2022-10-20T02:56:12.681Z,15.56
2022-10-20T02:58:39.700Z,15.47
2022-10-20T03:01:06.808Z,15.50
2022-10-20T03:03:33.853Z,15.46
2022-10-20T03:06:08.441Z,15.50
2022-10-20T03:08:35.633Z,15.54
2022-10-20T03:11:02.680Z,15.40
2022-10-20T03:16:02.541Z,15.46
2022-10-20T03:18:29.552Z,15.42
2022-10-20T03:20:56.765Z,15.42
2022-10-20T03:23:23.848Z,15.52
2022-10-20T03:25:53.781Z,15.34
2022-10-20T03:28:20.838Z,15.39
2022-10-20T03:30:48.657Z,15.42
2022-10-20T03:33:15.710Z,15.33
2022-10-20T03:35:42.792Z,15.32
2022-10-20T03:38:09.860Z,15.46
2022-10-20T03:40:36.874Z,15.41
2022-10-20T03:43:03.949Z,15.34
2022-10-20T03:45:31.032Z,15.40
2022-10-20T03:47:58.061Z,15.46
2022-10-20T03:50:25.172Z,15.42
2022-10-20T03:52:52.579Z,15.31
2022-10-20T03:55:20.095Z,15.46
2022-10-20T03:57:47.087Z,15.41
2022-10-20T04:00:14.625Z,15.39
2022-10-20T04:02:45.454Z,15.30
2022-10-20T04:05:15.327Z,15.30
2022-10-20T04:07:42.551Z,15.47
2022-10-20T04:10:10.484Z,15.45
2022-10-20T04:12:38.056Z,15.48
2022-10-20T04:15:06.686Z,15.45
2022-10-20T04:17:34.195Z,15.43
2022-10-20T04:20:01.887Z,15.51
2022-10-20T04:22:29.286Z,15.48
2022-10-20T04:24:56.767Z,15.39
2022-10-20T04:27:24.150Z,15.39
2022-10-20T04:29:54.840Z,15.43
2022-10-20T04:32:22.396Z,15.40
2022-10-20T04:34:49.875Z,15.41
2022-10-20T04:37:17.067Z,15.37
2022-10-20T04:39:44.185Z,15.39
2022-10-20T04:42:11.173Z,15.38
2022-10-20T04:44:38.283Z,15.34
2022-10-20T04:47:05.424Z,15.34
2022-10-20T04:49:32.403Z,15.32
2022-10-20T04:52:01.235Z,15.30
2022-10-20T04:54:29.249Z,15.26
2022-10-20T04:56:57.058Z,15.24
2022-10-20T04:59:24.499Z,15.23
2022-10-20T05:01:51.642Z,15.10
2022-10-20T05:04:21.953Z,15.12
2022-10-20T05:06:50.120Z,15.18
2022-10-20T05:09:17.499Z,15.23
2022-10-20T05:11:44.580Z,15.21
2022-10-20T05:14:11.640Z,15.16
2022-10-20T05:16:38.919Z,15.11
2022-10-20T05:19:05.950Z,15.11
2022-10-20T05:21:33.132Z,15.15
2022-10-20T05:24:02.716Z,15.13
2022-10-20T05:26:34.608Z,15.05
2022-10-20T05:29:07.387Z,15.10
2022-10-20T05:31:43.183Z,15.12
2022-10-20T05:34:11.826Z,15.02
2022-10-20T05:36:39.046Z,15.12
2022-10-20T05:39:06.446Z,15.04
2022-10-20T05:41:37.856Z,14.95
2022-10-20T05:44:09.040Z,15.07
2022-10-20T05:46:41.943Z,15.09
2022-10-20T05:49:15.980Z,14.96
2022-10-20T05:51:43.789Z,14.80
2022-10-20T05:54:12.229Z,14.93
2022-10-20T05:56:39.580Z,15.02
2022-10-20T05:59:07.335Z,15.07
2022-10-20T06:02:01.529Z,14.97
2022-10-20T06:04:31.325Z,14.92
2022-10-20T06:06:58.999Z,15.04
2022-10-20T06:09:26.326Z,15.04
2022-10-20T06:11:54.083Z,15.04
2022-10-20T06:14:23.935Z,15.06
2022-10-20T06:16:52.842Z,15.16
2022-10-20T06:19:20.379Z,15.14
2022-10-20T06:21:49.293Z,15.08
2022-10-20T06:24:18.814Z,15.09
2022-10-20T06:26:46.329Z,15.09
2022-10-20T06:29:16.167Z,15.05
2022-10-20T06:31:46.094Z,15.06
2022-10-20T06:34:16.571Z,15.06
2022-10-20T06:36:44.234Z,15.01
2022-10-20T06:39:14.115Z,15.00
2022-10-20T06:41:41.312Z,15.01
2022-10-20T06:44:18.799Z,15.03
2022-10-20T06:46:46.157Z,14.98
2022-10-20T06:49:14.087Z,15.06
2022-10-20T06:51:41.821Z,15.20
2022-10-20T06:54:09.620Z,15.06
2022-10-20T06:56:37.610Z,15.04
2022-10-20T06:59:04.915Z,15.15
2022-10-20T07:01:37.169Z,15.13
2022-10-20T07:04:07.623Z,15.06
2022-10-20T07:06:37.366Z,15.06
2022-10-20T07:09:09.833Z,15.23
2022-10-20T07:11:37.008Z,15.22
2022-10-20T07:14:05.148Z,15.26
2022-10-20T07:16:34.545Z,15.28
2022-10-20T07:19:03.322Z,15.31
2022-10-20T07:21:35.731Z,15.38
2022-10-20T07:24:06.547Z,15.46
2022-10-20T07:26:36.503Z,15.47
2022-10-20T07:29:05.036Z,15.35
2022-10-20T07:31:41.664Z,15.44
2022-10-20T07:34:24.975Z,15.54
2022-10-20T07:36:54.464Z,15.55
2022-10-20T07:39:21.750Z,15.62
2022-10-20T07:41:48.900Z,15.80
2022-10-20T07:44:16.560Z,15.76
2022-10-20T07:46:44.173Z,16.02
2022-10-20T07:51:58.693Z,15.96
2022-10-20T07:54:25.784Z,16.07
2022-10-20T07:56:53.332Z,16.14
2022-10-20T07:59:20.524Z,16.11
2022-10-20T08:01:47.657Z,16.25
2022-10-20T08:04:14.923Z,16.25
2022-10-20T08:06:42.262Z,16.29
2022-10-20T08:09:09.495Z,16.16
2022-10-20T08:11:36.510Z,16.34
2022-10-20T08:14:03.780Z,16.29
2022-10-20T08:16:30.936Z,16.31
2022-10-20T08:19:05.106Z,16.32
2022-10-20T08:21:32.654Z,16.59
2022-10-20T08:23:59.961Z,16.67
2022-10-20T08:26:27.079Z,16.67
2022-10-20T08:28:55.068Z,16.71
2022-10-20T08:31:22.691Z,16.61
2022-10-20T08:33:52.890Z,16.73
2022-10-20T08:36:21.345Z,16.68
2022-10-20T08:38:49.188Z,16.97
2022-10-20T08:41:25.044Z,17.02
2022-10-20T08:43:55.082Z,17.16
2022-10-20T08:46:34.396Z,17.03
2022-10-20T08:49:04.025Z,17.17
2022-10-20T08:51:39.305Z,17.21
2022-10-20T08:54:13.063Z,17.24
2022-10-20T08:56:40.193Z,17.28
2022-10-20T08:59:35.198Z,17.36
2022-10-20T09:02:07.482Z,17.44
2022-10-20T09:04:39.258Z,17.38
2022-10-20T09:07:35.105Z,17.55
2022-10-20T09:10:27.359Z,17.57
2022-10-20T09:12:55.093Z,17.66
2022-10-20T09:15:23.131Z,17.56
2022-10-20T09:17:54.778Z,17.73
2022-10-20T09:20:26.161Z,17.61
2022-10-20T09:22:53.258Z,17.90
2022-10-20T09:25:27.628Z,18.12
2022-10-20T09:27:57.342Z,18.21
2022-10-20T09:30:24.397Z,18.40
2022-10-20T09:32:52.091Z,18.22
2022-10-20T09:35:21.214Z,18.44
2022-10-20T09:37:57.231Z,18.60
2022-10-20T09:40:26.553Z,18.75
2022-10-20T09:43:21.243Z,18.86
2022-10-20T09:45:54.925Z,18.99
2022-10-20T09:48:26.258Z,18.99
2022-10-20T09:50:57.057Z,19.09
2022-10-20T09:53:29.004Z,19.06
2022-10-20T09:55:56.571Z,19.21
2022-10-20T09:58:34.817Z,19.38
2022-10-20T10:01:13.219Z,19.38
2022-10-20T10:03:53.371Z,19.44
2022-10-20T10:06:44.351Z,19.57
2022-10-20T10:09:50.924Z,19.70
2022-10-20T10:12:20.090Z,19.67
2022-10-20T10:15:04.542Z,19.84
2022-10-20T10:17:35.678Z,19.86
2022-10-20T10:20:07.708Z,19.84
2022-10-20T10:22:35.863Z,19.75
2022-10-20T10:25:04.962Z,19.86
2022-10-20T10:27:34.889Z,19.81
2022-10-20T10:30:17.262Z,19.89
2022-10-20T10:32:46.317Z,19.90
2022-10-20T10:35:40.367Z,19.82
2022-10-20T10:38:10.444Z,19.71
2022-10-20T10:40:50.112Z,19.72
2022-10-20T10:43:49.072Z,19.62
2022-10-20T10:46:26.374Z,19.60
2022-10-20T10:48:58.691Z,19.59
2022-10-20T10:51:34.732Z,19.56
2022-10-20T10:54:29.015Z,19.53
2022-10-20T10:57:23.992Z,19.53
2022-10-20T10:59:53.151Z,19.49
2022-10-20T11:02:39.100Z,19.53
2022-10-20T11:05:24.725Z,19.51
2022-10-20T11:08:27.080Z,19.51
2022-10-20T11:11:34.839Z,19.40
2022-10-20T11:14:40.008Z,19.38
2022-10-20T11:17:16.293Z,19.37
2022-10-20T11:20:12.160Z,19.25
2022-10-20T11:23:00.189Z,19.07
2022-10-20T11:25:37.918Z,19.23
2022-10-20T11:28:21.916Z,19.11
2022-10-20T11:30:50.859Z,19.14
2022-10-20T11:33:23.836Z,19.23
2022-10-20T11:36:23.442Z,19.53
2022-10-20T11:38:54.115Z,19.66
2022-10-20T11:41:50.602Z,19.85
2022-10-20T11:44:40.280Z,19.93
2022-10-20T11:47:12.317Z,19.97
2022-10-20T11:49:41.294Z,19.88
2022-10-20T11:52:34.825Z,20.02
2022-10-20T11:55:26.562Z,20.10
2022-10-20T11:58:12.151Z,20.16
2022-10-20T12:00:52.444Z,20.16
2022-10-20T12:03:21.092Z,20.19
2022-10-20T12:06:09.192Z,20.24
2022-10-20T12:08:37.732Z,20.15
2022-10-20T12:11:23.191Z,20.34
2022-10-20T12:14:11.333Z,20.37
2022-10-20T12:16:54.744Z,20.42
2022-10-20T12:19:26.817Z,20.46
2022-10-20T12:22:02.143Z,20.73
2022-10-20T12:24:41.604Z,20.87
2022-10-20T12:27:08.759Z,20.87
2022-10-20T12:29:35.808Z,20.93
2022-10-20T12:32:26.078Z,20.89
2022-10-20T12:35:22.224Z,20.85
2022-10-20T12:37:59.130Z,20.94
2022-10-20T12:40:31.575Z,20.93
2022-10-20T12:42:59.399Z,20.68
2022-10-20T12:45:41.074Z,20.81
2022-10-20T12:48:19.458Z,20.94
2022-10-20T12:50:52.070Z,20.97
2022-10-20T12:53:28.938Z,20.88
2022-10-20T12:56:06.282Z,20.98
2022-10-20T12:58:38.995Z,21.05
2022-10-20T13:01:11.988Z,21.03
2022-10-20T13:03:51.041Z,21.26
2022-10-20T13:06:24.183Z,21.26
2022-10-20T13:09:04.148Z,21.31
2022-10-20T13:11:45.288Z,21.49
2022-10-20T13:14:35.827Z,21.44
2022-10-20T13:17:13.065Z,21.70
2022-10-20T13:20:28.796Z,21.72
2022-10-20T13:22:57.314Z,21.59
2022-10-20T13:25:39.610Z,21.72
2022-10-20T13:28:14.802Z,21.84
2022-10-20T13:30:57.551Z,21.84
2022-10-20T13:33:58.872Z,21.92
2022-10-20T13:36:27.907Z,22.07
2022-10-20T13:39:05.752Z,22.04
2022-10-20T13:42:05.997Z,22.03
2022-10-20T13:44:38.705Z,21.90
2022-10-20T13:47:36.700Z,21.93
2022-10-20T13:50:11.876Z,21.82
2022-10-20T13:52:46.635Z,21.74
2022-10-20T13:55:24.395Z,21.60
2022-10-20T13:58:07.066Z,21.64
2022-10-20T14:00:36.395Z,21.60
2022-10-20T14:03:15.703Z,21.57
2022-10-20T14:05:42.975Z,21.53
2022-10-20T14:08:12.106Z,21.44
2022-10-20T14:10:59.681Z,21.43
2022-10-20T14:13:30.951Z,21.36
2022-10-20T14:15:59.803Z,21.34
2022-10-20T14:18:30.156Z,21.32
2022-10-20T14:21:03.706Z,21.23
2022-10-20T14:23:50.975Z,21.29
2022-10-20T14:26:23.012Z,21.34
2022-10-20T14:28:54.168Z,21.38
2022-10-20T14:31:23.898Z,21.32
2022-10-20T14:33:52.806Z,21.24
2022-10-20T14:36:24.930Z,21.17
2022-10-20T14:38:55.257Z,21.30
2022-10-20T14:41:33.265Z,21.23
2022-10-20T14:44:06.521Z,21.19
2022-10-20T14:46:46.925Z,21.18
2022-10-20T14:49:17.090Z,21.21
2022-10-20T14:51:56.239Z,21.21
2022-10-20T14:54:31.716Z,21.17
2022-10-20T14:57:01.952Z,21.04
2022-10-20T14:59:32.196Z,21.11
2022-10-20T15:02:13.643Z,21.19
2022-10-20T15:04:44.881Z,21.13
2022-10-20T15:07:22.379Z,21.15
2022-10-20T15:09:59.322Z,21.27
2022-10-20T15:12:34.126Z,21.26
2022-10-20T15:15:20.968Z,21.11
2022-10-20T15:17:50.280Z,21.25
2022-10-20T15:20:44.274Z,21.20
2022-10-20T15:23:26.767Z,21.05
2022-10-20T15:26:09.629Z,21.14
2022-10-20T15:28:41.151Z,21.21
2022-10-20T15:31:14.274Z,21.14
2022-10-20T15:33:42.234Z,21.08
2022-10-20T15:36:26.624Z,20.96
2022-10-20T15:38:54.710Z,20.84
2022-10-20T15:41:30.962Z,20.84
2022-10-20T15:44:14.498Z,20.75
2022-10-20T15:46:43.523Z,20.82
2022-10-20T15:49:11.033Z,20.78
2022-10-20T15:51:42.216Z,20.60
2022-10-20T15:54:14.120Z,20.64
2022-10-20T15:56:41.842Z,20.67
2022-10-20T15:59:09.002Z,20.52
2022-10-20T16:01:36.644Z,20.64
2022-10-20T16:04:17.305Z,20.59
2022-10-20T16:06:44.442Z,20.51
2022-10-20T16:09:15.012Z,20.45
2022-10-20T16:11:43.534Z,20.41
2022-10-20T16:14:10.955Z,20.20
2022-10-20T16:16:38.053Z,20.23
2022-10-20T16:19:05.784Z,20.18
2022-10-20T16:21:33.773Z,20.09
2022-10-20T16:24:03.631Z,20.10
2022-10-20T16:26:30.971Z,19.88
2022-10-20T16:28:58.144Z,19.93
2022-10-20T16:31:25.255Z,19.89
2022-10-20T16:33:52.472Z,19.77
2022-10-20T16:36:21.838Z,19.59
2022-10-20T16:38:49.021Z,19.66
2022-10-20T16:41:16.423Z,19.60
2022-10-20T16:43:45.953Z,19.55
2022-10-20T16:46:14.985Z,19.43
2022-10-20T16:48:48.065Z,19.41
2022-10-20T16:51:16.275Z,19.37
2022-10-20T16:53:43.748Z,19.31
2022-10-20T16:56:15.180Z,19.28
2022-10-20T16:58:45.539Z,19.24
2022-10-20T17:01:13.990Z,19.23
2022-10-20T17:03:51.816Z,19.14
2022-10-20T17:06:22.609Z,19.03
2022-10-20T17:08:53.066Z,18.97
2022-10-20T17:11:27.223Z,18.86
2022-10-20T17:13:56.250Z,18.84
2022-10-20T17:16:28.621Z,18.89
2022-10-20T17:19:01.474Z,18.95
2022-10-20T17:21:30.440Z,18.88
2022-10-20T17:23:57.727Z,18.76
2022-10-20T17:26:26.783Z,18.56
2022-10-20T17:28:55.526Z,18.63
2022-10-20T17:31:22.998Z,18.60
2022-10-20T17:33:51.705Z,18.46
2022-10-20T17:36:19.882Z,18.56
2022-10-20T17:38:47.133Z,18.49
2022-10-20T17:41:16.233Z,18.49
2022-10-20T17:43:43.286Z,18.50
2022-10-20T17:46:16.351Z,18.41
2022-10-20T17:48:43.578Z,18.45
2022-10-20T17:51:16.843Z,18.32
2022-10-20T17:53:46.227Z,18.31
2022-10-20T17:56:19.768Z,18.38
2022-10-20T17:58:49.472Z,18.32
2022-10-20T18:01:23.286Z,18.22
2022-10-20T18:03:56.800Z,18.19
2022-10-20T18:06:28.899Z,18.18
2022-10-20T18:09:02.696Z,18.15
2022-10-20T18:11:31.838Z,18.12
2022-10-20T18:14:00.373Z,18.06
2022-10-20T18:16:30.629Z,17.96
2022-10-20T18:21:31.820Z,18.09
2022-10-20T18:24:04.309Z,18.13
2022-10-20T18:26:33.478Z,18.08
2022-10-20T18:29:02.031Z,18.01
2022-10-20T18:31:32.461Z,17.93
2022-10-20T18:34:06.893Z,17.94
2022-10-20T18:36:38.067Z,17.89
2022-10-20T18:39:08.694Z,17.90
2022-10-20T18:41:39.380Z,17.97
2022-10-20T18:44:10.231Z,17.88
2022-10-20T18:46:37.818Z,17.93
2022-10-20T18:49:07.520Z,17.93
2022-10-20T18:51:36.429Z,17.94
2022-10-20T18:54:05.031Z,17.82
2022-10-20T18:56:32.240Z,17.83
2022-10-20T18:59:02.309Z,17.86
2022-10-20T19:01:33.024Z,17.88
2022-10-20T19:04:01.022Z,17.95
2022-10-20T19:06:30.938Z,17.99
2022-10-20T19:09:03.243Z,17.99
2022-10-20T19:11:33.368Z,18.01
2022-10-20T19:14:01.474Z,17.89
2022-10-20T19:16:31.557Z,17.85
2022-10-20T19:19:00.746Z,17.88
2022-10-20T19:21:29.539Z,17.76
2022-10-20T19:24:04.519Z,17.85
2022-10-20T19:26:34.573Z,17.82
2022-10-20T19:29:05.884Z,17.76
2022-10-20T19:31:38.816Z,17.76
2022-10-20T19:34:10.343Z,17.72
2022-10-20T19:36:40.790Z,17.72
2022-10-20T19:39:11.035Z,17.77
2022-10-20T19:41:38.299Z,17.61
2022-10-20T19:44:05.442Z,17.64
2022-10-20T19:46:32.798Z,17.59
2022-10-20T19:49:00.622Z,17.49
2022-10-20T19:51:27.988Z,17.51
2022-10-20T19:53:55.066Z,17.51
2022-10-20T19:56:22.128Z,17.64
2022-10-20T19:58:49.586Z,17.67
2022-10-20T20:01:17.517Z,17.55
2022-10-20T20:03:44.940Z,17.61
2022-10-20T20:06:18.824Z,17.59
2022-10-20T20:08:52.776Z,17.48
2022-10-20T20:11:31.064Z,17.63
2022-10-20T20:14:04.223Z,17.64
2022-10-20T20:16:31.178Z,17.74
2022-10-20T20:18:58.317Z,17.83
2022-10-20T20:21:26.775Z,17.78
2022-10-20T20:24:00.475Z,17.73
2022-10-20T20:26:34.351Z,17.66
2022-10-20T20:29:02.291Z,17.70
2022-10-20T20:31:29.793Z,17.74
2022-10-20T20:33:57.590Z,17.90
2022-10-20T20:36:28.437Z,17.87
2022-10-20T20:38:58.024Z,17.97
2022-10-20T20:41:31.084Z,18.08
2022-10-20T20:43:58.542Z,18.16
2022-10-20T20:46:29.489Z,18.03
2022-10-20T20:48:57.782Z,17.98
2022-10-20T20:51:26.214Z,17.88
2022-10-20T20:53:53.469Z,17.97
2022-10-20T20:56:23.122Z,17.82
2022-10-20T20:58:55.111Z,17.70
2022-10-20T21:01:27.721Z,17.87
2022-10-20T21:03:56.222Z,17.95
2022-10-20T21:06:33.202Z,17.89
2022-10-20T21:09:07.298Z,17.79
2022-10-20T21:11:34.629Z,17.69
2022-10-20T21:14:01.856Z,17.73
2022-10-20T21:16:30.318Z,17.69
2022-10-20T21:19:00.040Z,17.74
2022-10-20T21:21:29.458Z,17.76
2022-10-20T21:23:58.140Z,17.75
2022-10-20T21:26:25.842Z,17.77
2022-10-20T21:28:53.380Z,17.86
2022-10-20T21:31:22.775Z,17.99
2022-10-20T21:33:51.860Z,17.96
2022-10-20T21:36:20.573Z,17.78
2022-10-20T21:38:48.486Z,17.74
2022-10-20T21:41:18.535Z,18.15
2022-10-20T21:43:48.197Z,17.95
2022-10-20T21:46:36.126Z,18.08
2022-10-20T21:49:06.125Z,18.01
2022-10-20T21:51:35.636Z,17.97
2022-10-20T21:54:07.060Z,18.05
2022-10-20T21:56:37.021Z,17.93
2022-10-20T21:59:05.555Z,18.02
2022-10-20T22:01:32.938Z,18.01
2022-10-20T22:04:00.120Z,18.01
2022-10-20T22:06:28.314Z,18.01
2022-10-20T22:08:58.462Z,18.12
2022-10-20T22:11:28.875Z,18.02
2022-10-20T22:13:56.772Z,18.14
2022-10-20T22:16:27.193Z,18.21
2022-10-20T22:18:59.573Z,18.23
2022-10-20T22:21:27.042Z,18.31
2022-10-20T22:23:56.211Z,18.18
2022-10-20T22:26:26.020Z,17.99
2022-10-20T22:28:53.463Z,18.21
2022-10-20T22:31:20.525Z,18.11
2022-10-20T22:33:47.802Z,18.11
2022-10-20T22:36:14.890Z,17.93
2022-10-20T22:38:42.027Z,18.02
2022-10-20T22:41:11.242Z,17.90
2022-10-20T22:43:38.661Z,17.85
2022-10-20T22:46:06.281Z,17.88
2022-10-20T22:48:33.456Z,17.85
2022-10-20T22:51:00.561Z,17.89
2022-10-20T22:53:29.208Z,17.86
2022-10-20T22:55:57.791Z,17.92
2022-10-20T22:58:24.850Z,17.85
2022-10-20T23:00:51.958Z,17.87
2022-10-20T23:03:19.086Z,17.78
2022-10-20T23:05:46.095Z,17.83
2022-10-20T23:08:13.245Z,17.69
2022-10-20T23:10:40.257Z,17.66
2022-10-20T23:13:07.352Z,17.67
2022-10-20T23:15:34.456Z,17.63
2022-10-20T23:18:01.750Z,17.58
2022-10-20T23:20:28.776Z,17.59
2022-10-20T23:22:55.820Z,17.42
2022-10-20T23:25:22.930Z,17.50
2022-10-20T23:27:50.186Z,17.46
2022-10-20T23:30:17.236Z,17.44
2022-10-20T23:32:44.320Z,17.42
2022-10-20T23:35:11.336Z,17.41
2022-10-20T23:37:39.980Z,17.36
2022-10-20T23:40:07.880Z,17.25
2022-10-20T23:42:34.965Z,17.29
2022-10-20T23:45:02.912Z,17.13
2022-10-20T23:47:29.924Z,17.20
2022-10-20T23:49:57.056Z,17.15
2022-10-20T23:52:24.168Z,17.11
2022-10-20T23:54:51.208Z,17.07
2022-10-20T23:57:18.217Z,17.12
2022-10-20T23:59:45.420Z,16.93
